Архив погоды в Йошкар-Оле

Метеограмма Йошкар-Ола
Воскресенье, 22 Июля
Время местн. Темп Ветер Видим Явления Облачность нижн/средн/верх Атм. давл. Влжн Точка росы ВНГО R Сост. почвы Tg s
Напр Скр Прв ур.ст ур.м изм
03:00 +13.9° С-В 2 3 10 км - незначительная облачность 751 762 +0.2 92% +12.6° - - - - -
00:00 +18.1° В 3 4 10 км - преимущественно облачно 751 762 +0.1 83% +15.2° 1.5 км - - - -
Суббота, 21 Июля
Время местн. Темп Ветер Видим Явления Облачность нижн/средн/верх Атм. давл. Влжн Точка росы ВНГО R Сост. почвы Tg s
Напр Скр Прв ур.ст ур.м изм
21:00 +19.4° В,С-В 3 4 10 км - облачно с прояснениями 751 762 +0.8 78% +15.5° 1.5 км - - - -
18:00 +22.2° В 5 8 50 км - облачно с прояснениями 750 761 -0.2 65% +15.2° 1 км - - - -
15:00 +22.1° В 6 10 50 км - преимущественно облачно 750 761 +0.1 67% +15.6° 1 км - - - -
12:00 +20.6° В 6 11 50 км - облачно 750 761 +0.8 71% +15.2° 1 км - - - -
09:00 +20.9° В 5 9 50 км - облачно с прояснениями 750 760 +0.3 71% +15.5° 1 км - - - -
06:00 +19.1° В 3 6 20 км - облачно 749 760 +0.2 82% +15.9° 1.5 км - Влажная (без луж) - -
03:00 +18.5° В 3 5 4 км дымка переменная облачность 749 760 +0.2 89% +16.7° 1 км - - - -
00:00 +18.9° В 3 4 4 км дымка переменная облачность 749 759 -0.3 91% +17.4° 1 км - - - -
Пятница, 20 Июля
Время местн. Темп Ветер Видим Явления Облачность нижн/средн/верх Атм. давл. Влжн Точка росы ВНГО R Сост. почвы Tg s
Напр Скр Прв ур.ст ур.м изм
21:00 +20.5° В 4 6 10 км - переменная облачность 749 760 +0.5 81% +17.1° 1.5 км - - - -
18:00 +23° В 5 8 20 км - переменная облачность 749 759 -0.4 70% +17.2° 1 км - - - -
15:00 +23.3° В 6 8 20 км - преимущественно облачно 749 759 +0.3 69% +17.3° 1 км - - - -
12:00 +21.9° В 5 8 10 км - преимущественно облачно 749 759 +0.1 71% +16.5° 1 км - - - -
09:00 +21.2° В 5 8 10 км - облачно с прояснениями 749 759 +0.5 80% +17.7° 1 км - - - -
06:00 +18.5° В,С-В 3 4 4 км дымка облачно с прояснениями 748 759 +0.4 95% +17.7° - - Влажная (без луж) - -
03:00 +17.9° В,С-В 2 2 4 км дымка облачно с прояснениями 748 758 +0.5 98% +17.6° 1.5 км - - - -
00:00 +18.8° С,С-В 1 3 4 км дымка облачно с прояснениями 747 758 +0.3 96% +18.2° 1 км - - - -
Четверг, 19 Июля
Время местн. Темп Ветер Видим Явления Облачность нижн/средн/верх Атм. давл. Влжн Точка росы ВНГО R Сост. почвы Tg s
Напр Скр Прв ур.ст ур.м изм
21:00 +19.2° В 2 4 10 км небо без изменений {ливневые осадки} преимущественно облачно 747 758 +1.2 88% +17.1° 1 км - - - -
18:00 +20.8° В,Ю-В 3 4 10 км небо без изменений {ливневые осадки} облачно с прояснениями 746 756 +0.6 86% +18.4° 1 км - - - -
15:00 +23.6° В 4 5 10 км небо без изменений {ливневые осадки} преимущественно облачно 745 756 +0.2 79% +19.7° 1 км - - - -
12:00 +20.4° С-В 1 2 10 км ливневый дождь облачно 745 756 +0.4 92% +19.1° 1 км - - - -
09:00 +19.7° В 1 2 10 км ливневый дождь облачно 745 755 +0.2 93% +18.6° 1 км - - - -
06:00 +19.3° В,С-В 2 4 10 км - облачно 745 755 +0.2 93% +18.2° 1 км - Влажная (без луж) - -
03:00 +18.9° С-В 2 3 4 км дымка облачно 744 755 0 97% +18.4° 1 км - - - -
00:00 +19.2° В,С-В 2 4 10 км - преимущественно облачно 744 755 -0.2 91% +17.7° 1 км - - - -